»·PEaware :: UAL2038 KPDX-KGEG

UAL2038 :: KPDX-KGEG

FLIGHT INFORMATION

Flight Status: Arrived
Operator:
United Airlines
More flights by this operator :: More flights under this callsign
Pilot: Maximilliano F. (23467)
Aircraft: BOEING 737-800
(B738)
More flights by this aircraft type
Origin: KPDX Portland Intl
United States
Destination: KGEG Spokane Intl
United States
More flights between these airports :: More routes between these airports
Route: BTG PAPPS ZOOMR ZOOMR1
File this flight plan on PilotEdge
Remarks: RMK / SIMBRIEF
Altitude:
(Current/Filed)
31,000ft
Speed:
(Current/Filed)
445kts
Departed: 08-Oct-19 07:07 PM
Arrived: 08-Oct-19 07:52 PM
Distance/Time
Traveled:
242nm/0:45
Distance/Time
To Go:
Arrived

Flight Plot

Page will automatically refresh every two minutes.


Map Options




Map Legend


Flown Route
Filed Route
Departure Airport
Arrival Airport
Navaid (VOR, NDB)
Fix

Horizontal Profiles

Position Reports

Time Latitude Longitude Heading Altitude Ground
Speed
08-Oct-19 18:30 45.589878 -122.590534 224 30ft 0kts
08-Oct-19 18:31 45.589878 -122.590534 224 30ft 0kts
08-Oct-19 18:32 45.589878 -122.590534 224 30ft 0kts
08-Oct-19 18:33 45.589878 -122.590534 224 30ft 0kts
08-Oct-19 18:34 45.589878 -122.590534 224 30ft 0kts
08-Oct-19 18:35 45.589878 -122.590534 224 30ft 0kts
08-Oct-19 18:36 45.589878 -122.590534 224 30ft 0kts
08-Oct-19 18:37 45.589878 -122.590534 224 30ft 0kts
08-Oct-19 18:38 45.589878 -122.590534 224 30ft 0kts
08-Oct-19 18:39 45.589878 -122.590534 224 30ft 0kts
08-Oct-19 18:40 45.589878 -122.590534 224 30ft 0kts
08-Oct-19 18:41 45.589878 -122.590534 224 30ft 0kts
08-Oct-19 18:42 45.589878 -122.590534 224 30ft 0kts
08-Oct-19 18:43 45.589878 -122.590534 224 30ft 0kts
08-Oct-19 18:44 45.589878 -122.590534 224 30ft 0kts
08-Oct-19 18:45 45.589878 -122.590534 224 30ft 0kts
08-Oct-19 18:46 45.589878 -122.590534 224 30ft 0kts
08-Oct-19 18:47 45.589878 -122.590534 224 30ft 0kts
08-Oct-19 18:48 45.589878 -122.590534 224 30ft 0kts
08-Oct-19 18:49 45.589878 -122.590534 224 30ft 0kts
08-Oct-19 18:50 45.589878 -122.590534 224 30ft 0kts
08-Oct-19 18:51 45.589878 -122.590534 224 30ft 0kts
08-Oct-19 18:52 45.589878 -122.590534 224 30ft 0kts
08-Oct-19 18:53 45.589878 -122.590534 224 30ft 0kts
08-Oct-19 18:54 45.589878 -122.590534 224 30ft 0kts
08-Oct-19 18:56 45.590212 -122.590092 200 30ft 2kts
08-Oct-19 18:57 45.590660 -122.590308 116 30ft 1kts
08-Oct-19 18:58 45.590677 -122.590354 119 30ft 0kts
08-Oct-19 18:59 45.590676 -122.590352 119 30ft 0kts
08-Oct-19 19:00 45.589347 -122.587265 113 30ft 1kts
08-Oct-19 19:01 45.588477 -122.582619 118 30ft 22kts
08-Oct-19 19:02 45.585018 -122.573756 118 30ft 24kts
08-Oct-19 19:03 45.582724 -122.567473 74 30ft 0kts
08-Oct-19 19:04 45.582724 -122.567473 74 30ft 0kts
08-Oct-19 19:05 45.582724 -122.567473 74 30ft 0kts
08-Oct-19 19:06 45.584725 -122.569767 299 30ft 27kts
08-Oct-19 19:07 45.599668 -122.610337 295 1030ft 179kts
08-Oct-19 19:08 45.627189 -122.679679 299 3741ft 233kts
08-Oct-19 19:09 45.663475 -122.754256 333 7657ft 244kts
08-Oct-19 19:10 45.717776 -122.697263 62 10858ft 305kts
08-Oct-19 19:11 45.750120 -122.579584 66 13528ft 347kts
08-Oct-19 19:12 45.785302 -122.442479 64 16325ft 383kts
08-Oct-19 19:13 45.824114 -122.296403 64 19309ft 406kts
08-Oct-19 19:14 45.865091 -122.141841 64 22134ft 425kts
08-Oct-19 19:15 45.906937 -121.982287 62 25704ft 415kts
08-Oct-19 19:15 45.941681 -121.849516 62 27416ft 436kts
08-Oct-19 19:16 45.984881 -121.683280 62 29554ft 453kts
08-Oct-19 19:18 46.037145 -121.480551 63 31124ft 479kts
08-Oct-19 19:18 46.075165 -121.331580 64 31124ft 477kts
08-Oct-19 19:19 46.119363 -121.157458 64 31111ft 480kts
08-Oct-19 19:20 46.165062 -120.975997 65 31036ft 484kts
08-Oct-19 19:22 46.218428 -120.762110 65 31015ft 489kts
08-Oct-19 19:22 46.256527 -120.608072 66 31013ft 491kts
08-Oct-19 19:23 46.302330 -120.421441 66 31014ft 494kts
08-Oct-19 19:24 46.347944 -120.234242 67 31006ft 497kts
08-Oct-19 19:25 46.393525 -120.045780 67 30996ft 497kts
08-Oct-19 19:26 46.444308 -119.859957 51 31002ft 490kts
08-Oct-19 19:27 46.533714 -119.714308 41 30992ft 482kts
08-Oct-19 19:28 46.625828 -119.572904 41 30993ft 481kts
08-Oct-19 19:29 46.717729 -119.430871 41 31002ft 479kts
08-Oct-19 19:30 46.806129 -119.293602 42 30985ft 480kts
08-Oct-19 19:31 46.897638 -119.150732 43 29684ft 484kts
08-Oct-19 19:32 46.985885 -119.012132 44 27304ft 453kts
08-Oct-19 19:33 47.069448 -118.880277 45 24913ft 435kts
08-Oct-19 19:34 47.152450 -118.748684 46 22403ft 434kts
08-Oct-19 19:35 47.231550 -118.622577 46 20031ft 404kts
08-Oct-19 19:36 47.305037 -118.504870 46 17801ft 374kts
08-Oct-19 19:37 47.373631 -118.394536 46 15740ft 365kts
08-Oct-19 19:38 47.429870 -118.275554 67 14089ft 350kts
08-Oct-19 19:39 47.460807 -118.139355 72 14047ft 348kts
08-Oct-19 19:40 47.508297 -118.018145 54 12284ft 337kts
08-Oct-19 19:41 47.560878 -117.906073 54 10088ft 316kts
08-Oct-19 19:42 47.605468 -117.808105 54 9243ft 269kts
08-Oct-19 19:43 47.648822 -117.720029 44 7604ft 260kts
08-Oct-19 19:44 47.697469 -117.644748 44 6459ft 233kts
08-Oct-19 19:45 47.739947 -117.578946 44 5276ft 207kts
08-Oct-19 19:46 47.778816 -117.519922 44 4026ft 191kts
08-Oct-19 19:47 47.764698 -117.457532 133 3882ft 180kts
08-Oct-19 19:48 47.722951 -117.434771 178 3515ft 166kts
08-Oct-19 19:49 47.679939 -117.446936 213 3511ft 163kts
08-Oct-19 19:50 47.647373 -117.493968 225 2874ft 164kts
08-Oct-19 19:51 47.625361 -117.527110 226 2390ft 0kts

Navigation Log

Ident Type
Flight plan parsing failed, navigation log unavailable